Indianola, WA (98342)

3:13 AM PST on February 07, 2016 (GMT -0800)
Miller Bay Estates Bridge | | Change Station
CLOSE
Current Station
Personal Weather Station
Location: Poulsbo, WA
Elevation: 250 ft
Nearby Weather Stations

Elev 250 ft 47.76 °N, 122.55 °W | Updated 13 minutes ago

Mostly Cloudy
Mostly Cloudy
37.0 °F
Feels Like 37 °F
N
0.0
Wind Variable Wind from East

Today
High -- | Low -- °F
--% Chance of Precip.
Yesterday
High -- | Low -- °F
Precip. -- in
Pressure 30.54 in
Visibility 10.0 miles
Clouds Overcast 11000 ft
Windchill 37 °F
Dew Point 37 °F
Humidity 99%
Rainfall 0.00 in
Snow Depth Not available.
7:29 AM 5:19 PM
Waning Crescent, 2% visible
METAR KPAE 071053Z AUTO 11007KT 10SM OVC110 04/01 A3052 RMK AO2 SLP340 T00390011
Pressure 30.54 in
Visibility 10.0 miles
Clouds Overcast 11000 ft
Windchill 37 °F
Dew Point 37 °F
Humidity 99%
Rainfall 0.00 in
Snow Depth Not available.
7:29 AM 5:19 PM
Waning Crescent, 2% visible
METAR KPAE 071053Z AUTO 11007KT 10SM OVC110 04/01 A3052 RMK AO2 SLP340 T00390011

10-Day Weather Forecast

Almanac

Astronomy

Feb. 07, 2016 Rise Set
Actual Time
Civil Twilight
Nautical Twilight
Astronomical Twilight
Moon
Length of Visible Light
Length of Day
Tomorrow will be .
, % of the Moon is Illuminated

Today's Extremes

State Highs State Lows

Community

WunderPhotos

Upload Photos

1,891,170 photos uploaded!

WunderBlog® & News

Nearby

Air Quality

  Air Quality AQ Index Pollutant
Not available.

Snow Depth

Station Depth Elevation

Earthquake Activity

City Distance Mag. Time & Date
Minimum magnitude displayed is 2.5.

Coastal Water Temperatures

Place Temperature

Stations

Nearby Weather Stations

Station Location Temp. Windchill Dew Point Humidity Wind Precip. Elev Updated Type
                   

Watches & Warnings

There are currently no watches in effect.